ADDS METAR Data INFO
IDs: Format: Raw Decoded Include TAF

Data at: 0927 UTC 17 Oct 2017

KIKW 170914Z AUTO 00000KT 10SM CLR 06/03 A3014 RMK AO2 T00550031
KIKW 170853Z AUTO 00000KT 10SM CLR 05/03 A3014 RMK AO2 T00510031
KIKW 170834Z AUTO 00000KT 10SM CLR 05/03 A3014 RMK AO2 T00490029
KIKW 170814Z AUTO 00000KT 10SM CLR 05/03 A3016 RMK AO2 T00510030
KIKW 170753Z AUTO 00000KT 10SM CLR 05/03 A3016 RMK AO2 T00510030
KIKW 170734Z AUTO 00000KT 10SM CLR 05/03 A3017 RMK AO2 T00530030
KIKW 170714Z AUTO 00000KT 10SM CLR 06/03 A3017 RMK AO2 T00550030
KIKW 170653Z AUTO 18003KT 10SM CLR 06/03 A3017 RMK AO2 T00580033
KIKW 170634Z AUTO 18004KT 10SM CLR 06/03 A3017 RMK AO2 T00570034
KIKW 170613Z AUTO 18004KT 10SM CLR 06/04 A3017 RMK AO2 T00600035
KIKW 170554Z AUTO 18003KT 10SM CLR 05/03 A3017 RMK AO2 T00530034 10076 20034 401370020
KIKW 170534Z AUTO 00000KT 10SM CLR 05/04 A3017 RMK AO2 T00520035
KIKW 170513Z AUTO 00000KT 10SM CLR 05/03 A3017 RMK AO2 T00490032
KIKW 170454Z AUTO 00000KT 10SM CLR 05/03 A3018 RMK AO2 T00500033
KIKW 170434Z AUTO 00000KT 10SM CLR 05/04 A3018 RMK AO2 T00470042
KIKW 170413Z AUTO 00000KT 10SM CLR 04/04 A3018 RMK AO2 T00410040
KIKW 170354Z AUTO 00000KT 10SM CLR 04/04 A3019 RMK AO2 T00390037
KIKW 170334Z AUTO 00000KT 10SM CLR 04/03 A3019 RMK AO2 T00350033
KIKW 170315Z AUTO 00000KT 10SM CLR 04/04 A3020 RMK AO2 T00400036
KIKW 170254Z AUTO 00000KT 10SM CLR 05/03 A3020 RMK AO2 T00450033
KIKW 170234Z AUTO 00000KT 10SM CLR 06/04 A3020 RMK AO2 T00560042
KIKW 170214Z AUTO 00000KT 10SM CLR 07/04 A3019 RMK AO2 T00660042
KIKW 170154Z AUTO 00000KT 10SM CLR 07/04 A3020 RMK AO2 T00700041
KIKW 170134Z AUTO 00000KT 10SM CLR 08/04 A3020 RMK AO2 T00750043
KIKW 170114Z AUTO 00000KT 10SM CLR 07/05 A3020 RMK AO2 T00690045
KIKW 170054Z AUTO 00000KT 10SM CLR 07/05 A3020 RMK AO2 T00680046
KIKW 170034Z AUTO 00000KT 10SM CLR 06/05 A3020 RMK AO2 T00580050
KIKW 170014Z AUTO 00000KT 10SM CLR 06/05 A3021 RMK AO2 T00580046
KIKW 162354Z AUTO 00000KT 10SM CLR 07/04 A3021 RMK AO2 T00670044 10137 20067
KIKW 162334Z AUTO 00000KT 10SM CLR 07/05 A3021 RMK AO2 T00720051
KIKW 162314Z AUTO 00000KT 10SM SCT046 09/05 A3021 RMK AO2 T00850049
KIKW 162254Z AUTO 00000KT 10SM SCT046 10/04 A3020 RMK AO2 T00990043
KIKW 162234Z AUTO 00000KT 10SM CLR 11/04 A3020 RMK AO2 T01130041
KIKW 162214Z AUTO 22004KT 10SM CLR 12/04 A3020 RMK AO2 T01180036
KIKW 162154Z AUTO 00000KT 10SM SCT070 13/04 A3021 RMK AO2 T01330035
KIKW 162134Z AUTO 00000KT 10SM SCT046 SCT050 BKN070 14/03 A3021 RMK AO2 T01350033
KIKW 162114Z AUTO 00000KT 10SM SCT075 12/03 A3021 RMK AO2 T01220034
KIKW 162054Z AUTO 20006KT 10SM SCT046 SCT050 BKN075 14/03 A3021 RMK AO2 T01360032
KIKW 162034Z AUTO 00000KT 10SM SCT048 BKN075 14/03 A3022 RMK AO2 T01350029
KIKW 162014Z AUTO 20008KT 10SM SCT048 SCT055 SCT075 14/03 A3021 RMK AO2 T01360029
KIKW 161954Z AUTO 22006KT 10SM SCT048 SCT065 BKN075 13/03 A3022 RMK AO2 T01270028
KIKW 161934Z AUTO 24004KT 10SM SCT044 BKN065 OVC075 13/03 A3022 RMK AO2 T01250026
KIKW 161914Z AUTO 19007KT 10SM SCT044 SCT050 OVC065 13/03 A3022 RMK AO2 T01290029
KIKW 161854Z AUTO 24006KT 10SM SCT043 BKN065 OVC080 13/03 A3023 RMK AO2 T01280027
KIKW 161834Z AUTO 20004KT 10SM BKN046 OVC060 12/02 A3024 RMK AO2 T01230024
KIKW 161814Z AUTO 20006KT 10SM SCT041 BKN049 OVC055 13/03 A3025 RMK AO2 T01250029
KIKW 161754Z AUTO 18007KT 10SM SCT044 OVC055 12/03 A3026 RMK AO2 P0075 60075 T01230027 10127 20035
KIKW 161734Z AUTO 23004KT 10SM SCT036 BKN046 BKN055 12/03 A3027 RMK AO2 P0032 T01190028
KIKW 161714Z AUTO 00000KT 10SM SCT036 SCT044 11/03 A3027 RMK AO2 T01130032
KIKW 161654Z AUTO 18005KT 10SM CLR 11/03 A3028 RMK AO2 T01140031
KIKW 161634Z AUTO 18005KT 10SM CLR 11/03 A3028 RMK AO2 T01110033
KIKW 161614Z AUTO 22003KT 10SM CLR 11/03 A3028 RMK AO2 T01050030
KIKW 161554Z AUTO 20003KT 10SM CLR 10/03 A3028 RMK AO2 T00960028
KIKW 161534Z AUTO 18003KT 10SM SCT070 SCT080 09/03 A3029 RMK AO2 T00930028
KIKW 161514Z AUTO 23003KT 10SM BKN070 OVC080 09/02 A3029 RMK AO2 T00850023
KIKW 161453Z AUTO 00000KT 10SM BKN080 OVC100 08/02 A3030 RMK AO2 T00810015
KIKW 161434Z AUTO 00000KT 10SM OVC100 08/01 A3029 RMK AO2 T00820014
KIKW 161414Z AUTO 00000KT 10SM OVC100 08/01 A3029 RMK AO2 T00750008
KIKW 161354Z AUTO 00000KT 10SM OVC100 08/02 A3028 RMK AO2 T00770024
KIKW 161334Z AUTO 00000KT 10SM OVC110 07/04 A3028 RMK AO2 T00660043
KIKW 161314Z AUTO 00000KT 10SM BKN110 05/05 A3029 RMK AO2 T00540054
KIKW 161253Z AUTO 00000KT 10SM SCT095 04/04 A3028 RMK AO2 T00350035
KIKW 161234Z AUTO 00000KT 10SM OVC095 04/04 A3028 RMK AO2 T00370037
KIKW 161214Z AUTO 00000KT 10SM OVC085 04/04 A3027 RMK AO2 T00390039
KIKW 161153Z AUTO 00000KT 10SM OVC085 04/04 A3027 RMK AO2 P0001 60001 70003 T00380038 10045 20020
KIKW 161134Z AUTO 00000KT 10SM OVC085 03/03 A3027 RMK AO2 P0001 T00340034
KIKW 161114Z AUTO 00000KT 10SM BKN085 03/03 A3026 RMK AO2 T00300030
KIKW 161054Z AUTO 00000KT 10SM SCT085 BKN110 04/04 A3025 RMK AO2 T00360036
KIKW 161034Z AUTO 00000KT 10SM BKN085 OVC100 05/04 A3025 RMK AO2 T00450043
KIKW 161013Z AUTO 00000KT 10SM BKN085 OVC100 05/05 A3025 RMK AO2 T00450045
KIKW 160954Z AUTO 00000KT 10SM OVC085 04/04 A3024 RMK AO2 T00410041
KIKW 160934Z AUTO 00000KT 10SM OVC085 04/04 A3023 RMK AO2 T00420042
KIKW 160913Z AUTO 00000KT 10SM OVC085 04/04 A3022 RMK AO2 T00430042
KIKW 160854Z AUTO 00000KT 10SM OVC085 05/05 A3022 RMK AO2 T00450045
KIKW 160834Z AUTO 00000KT 10SM SCT070 OVC085 04/04 A3022 RMK AO2 T00400040
KIKW 160813Z AUTO 00000KT 10SM OVC080 04/04 A3021 RMK AO2 T00350035
KIKW 160754Z AUTO 00000KT 10SM BKN090 OVC110 04/04 A3021 RMK AO2 T00350035
KIKW 160734Z AUTO 00000KT 10SM SCT090 OVC110 04/04 A3021 RMK AO2 T00350035
KIKW 160713Z AUTO 00000KT 10SM OVC100 04/04 A3021 RMK AO2 T00370037
KIKW 160654Z AUTO 00000KT 10SM OVC100 04/04 A3020 RMK AO2 T00350035
KIKW 160634Z AUTO 00000KT 10SM OVC110 04/04 A3020 RMK AO2 T00350035
KIKW 160613Z AUTO 00000KT 10SM OVC110 03/03 A3019 RMK AO2 T00280028
KIKW 160554Z AUTO 00000KT 10SM OVC100 03/03 A3018 RMK AO2 60001 T00250025 10089 20015 402010015
KIKW 160534Z AUTO 00000KT 10SM SCT100 02/02 A3018 RMK AO2 T00200020
KIKW 160513Z AUTO 00000KT 3SM BR CLR 02/02 A3018 RMK AO2 T00210021
KIKW 160454Z AUTO 00000KT 5SM BR CLR 02/02 A3018 RMK AO2 T00240024
KIKW 160434Z AUTO 00000KT 7SM CLR 02/02 A3017 RMK AO2 T00230023
KIKW 160413Z AUTO 00000KT 2SM BR CLR 03/03 A3017 RMK AO2 T00310031
KIKW 160354Z AUTO 00000KT 10SM CLR 03/03 A3016 RMK AO2 T00340033
KIKW 160334Z AUTO 00000KT 10SM CLR 04/04 A3016 RMK AO2 T00420041
KIKW 160315Z AUTO 00000KT 10SM CLR 05/04 A3015 RMK AO2 T00460044
KIKW 160254Z AUTO 00000KT 10SM CLR 05/04 A3014 RMK AO2 60001 T00460043
KIKW 160234Z AUTO 00000KT 10SM CLR 05/04 A3014 RMK AO2 T00470044
KIKW 160214Z AUTO 00000KT 10SM CLR 05/05 A3014 RMK AO2 T00540049
KIKW 160154Z AUTO 00000KT 10SM CLR 06/05 A3013 RMK AO2 T00560045
KIKW 160134Z AUTO 00000KT 10SM SCT027 07/05 A3012 RMK AO2 T00690046
KIKW 160114Z AUTO 00000KT 10SM BKN027 08/05 A3012 RMK AO2 T00790046
KIKW 160054Z AUTO 00000KT 10SM BKN029 OVC037 08/05 A3011 RMK AO2 P0001 T00820047
KIKW 160034Z AUTO 31003KT 10SM BKN031 BKN036 BKN044 09/05 A3010 RMK AO2 T00890047
KIKW 160014Z AUTO 31005KT 10SM SCT030 SCT036 SCT042 09/05 A3009 RMK AO2 T00850045
KIKW 152354Z AUTO 31006KT 10SM SCT032 SCT044 SCT049 09/04 A3008 RMK AO2 60001 T00890044 10162 20089
KIKW 152334Z AUTO 31004KT 10SM BKN046 09/05 A3006 RMK AO2 T00930045
KIKW 152314Z AUTO 32009G15KT 10SM BKN046 BKN050 10/05 A3004 RMK AO2 T00970045
KIKW 152254Z AUTO 32008KT 10SM SCT032 SCT042 SCT047 10/05 A3003 RMK AO2 T00970049
KIKW 152234Z AUTO 30007G14KT 10SM SCT034 OVC042 11/05 A3001 RMK AO2 T01050045
KIKW 152214Z AUTO 32011G18KT 10SM SCT034 OVC041 11/04 A2999 RMK AO2 T01090044
KIKW 152154Z AUTO 32009G18KT 10SM SCT034 OVC041 11/05 A2997 RMK AO2 T01110046
KIKW 152134Z AUTO 32013G26KT 270V330 10SM BKN040 BKN046 11/04 A2995 RMK AO2 T01130041